createdAt,value
2023-01-11T00:01:12.649Z,8.60
2023-01-11T00:06:15.963Z,7.97
2023-01-11T00:11:19.605Z,10.17
2023-01-11T00:16:24.567Z,10.60
2023-01-11T00:21:27.976Z,9.32
2023-01-11T00:26:31.281Z,10.27
2023-01-11T00:31:36.018Z,9.07
2023-01-11T00:36:39.330Z,8.82
2023-01-11T00:41:59.931Z,10.35
2023-01-11T00:47:22.029Z,10.83
2023-01-11T00:52:25.399Z,10.85
2023-01-11T00:57:28.780Z,10.65
2023-01-11T01:02:35.074Z,13.23
2023-01-11T01:07:38.682Z,10.93
2023-01-11T01:12:59.377Z,8.27
2023-01-11T01:18:04.053Z,8.38
2023-01-11T01:23:07.326Z,8.90
2023-01-11T01:28:10.567Z,8.65
2023-01-11T01:33:15.179Z,7.45
2023-01-11T01:38:18.888Z,8.23
2023-01-11T01:43:22.169Z,8.60
2023-01-11T01:48:28.533Z,6.22
2023-01-11T01:53:37.205Z,5.68
2023-01-11T01:58:43.597Z,4.68
2023-01-11T02:03:49.214Z,3.63
2023-01-11T02:09:00.105Z,4.10
2023-01-11T02:14:07.765Z,4.97
2023-01-11T02:19:26.066Z,5.47
2023-01-11T02:24:48.731Z,3.80
2023-01-11T02:30:04.562Z,5.90
2023-01-11T02:35:18.233Z,4.03
2023-01-11T02:40:27.459Z,4.30
2023-01-11T02:45:42.386Z,4.50
2023-01-11T02:50:52.186Z,4.78
2023-01-11T02:55:58.417Z,3.80
2023-01-11T03:01:03.315Z,3.30
2023-01-11T03:06:14.371Z,3.40
2023-01-11T03:11:46.152Z,4.50
2023-01-11T03:16:56.870Z,2.75
2023-01-11T03:22:07.011Z,3.80
2023-01-11T03:27:18.681Z,5.37
2023-01-11T03:32:32.308Z,4.07
2023-01-11T03:37:39.305Z,5.88
2023-01-11T03:42:59.480Z,6.87
2023-01-11T03:48:06.093Z,4.68
2023-01-11T03:53:11.640Z,7.22
2023-01-11T03:58:15.406Z,7.07
2023-01-11T04:03:20.096Z,6.20
2023-01-11T04:08:23.367Z,6.60
2023-01-11T04:13:26.662Z,8.02
2023-01-11T04:18:31.454Z,7.60
2023-01-11T04:23:34.695Z,7.50
2023-01-11T04:28:37.943Z,7.00
2023-01-11T04:33:42.599Z,7.00
2023-01-11T04:38:45.845Z,10.02
2023-01-11T04:43:49.140Z,11.63
2023-01-11T04:48:53.924Z,11.77
2023-01-11T04:53:57.162Z,15.87
2023-01-11T04:59:00.736Z,18.35
2023-01-11T05:04:05.647Z,14.85
2023-01-11T05:09:13.350Z,19.48
2023-01-11T05:14:17.350Z,18.63
2023-01-11T05:19:22.882Z,17.77
2023-01-11T05:24:26.195Z,18.33
2023-01-11T05:29:29.686Z,14.77
2023-01-11T05:34:34.416Z,15.65
2023-01-11T05:39:37.692Z,17.17
2023-01-11T05:44:58.682Z,20.02
2023-01-11T05:50:03.305Z,21.55
2023-01-11T05:55:07.886Z,23.15
2023-01-11T06:00:12.761Z,22.10
2023-01-11T06:05:17.728Z,24.27
2023-01-11T06:10:21.023Z,21.05
2023-01-11T06:15:24.316Z,21.87
2023-01-11T06:20:28.947Z,19.65
2023-01-11T06:25:32.918Z,23.00
2023-01-11T06:30:36.327Z,22.10
2023-01-11T06:35:42.610Z,20.27
2023-01-11T06:40:53.360Z,25.63
2023-01-11T06:45:57.301Z,31.40
2023-01-11T06:51:02.007Z,25.40
2023-01-11T06:56:05.741Z,25.20
2023-01-11T07:01:09.352Z,27.67
2023-01-11T07:06:14.359Z,29.83
2023-01-11T07:11:17.658Z,31.23
2023-01-11T07:16:21.814Z,32.08
2023-01-11T07:21:26.513Z,30.38
2023-01-11T07:26:29.929Z,29.27
2023-01-11T07:31:33.270Z,30.50
2023-01-11T07:36:39.725Z,32.83
2023-01-11T07:42:00.324Z,33.38
2023-01-11T07:47:03.677Z,35.63
2023-01-11T07:52:09.317Z,35.45
2023-01-11T07:57:12.781Z,34.60
2023-01-11T08:02:16.127Z,31.02
2023-01-11T08:07:20.814Z,30.67
2023-01-11T08:12:41.719Z,30.67
2023-01-11T08:17:44.972Z,28.90
2023-01-11T08:22:49.656Z,27.60
2023-01-11T08:27:53.360Z,27.67
2023-01-11T08:32:57.783Z,30.23
2023-01-11T08:38:02.449Z,32.75
2023-01-11T08:43:05.718Z,29.63
2023-01-11T08:48:09.008Z,26.35
2023-01-11T08:53:13.806Z,22.52
2023-01-11T08:58:17.510Z,23.38
2023-01-11T09:03:20.982Z,24.90
2023-01-11T09:08:26.461Z,22.83
2023-01-11T09:13:29.725Z,19.52
2023-01-11T09:18:33.021Z,21.17
2023-01-11T09:23:38.203Z,21.38
2023-01-11T09:28:41.681Z,19.05
2023-01-11T09:33:44.918Z,17.65
2023-01-11T09:38:50.594Z,17.73
2023-01-11T09:44:02.276Z,14.10
2023-01-11T09:49:07.687Z,13.90
2023-01-11T09:54:19.456Z,13.93
2023-01-11T09:59:31.117Z,12.97
2023-01-11T10:04:50.227Z,10.85
2023-01-11T10:18:35.336Z,11.32
2023-01-11T10:21:06.832Z,10.60
2023-01-11T10:26:25.335Z,9.50
2023-01-11T10:31:47.414Z,8.30
2023-01-11T10:37:11.006Z,8.75
2023-01-11T10:42:21.388Z,8.40
2023-01-11T10:47:30.620Z,8.10
2023-01-11T10:52:41.567Z,7.93
2023-01-11T10:58:00.370Z,8.20
2023-01-11T11:03:39.611Z,8.32
2023-01-11T11:08:51.800Z,7.88
2023-01-11T11:14:01.973Z,9.15
2023-01-11T11:19:05.234Z,7.18
2023-01-11T11:24:17.815Z,6.60
2023-01-11T11:29:30.538Z,6.00
2023-01-11T11:34:33.772Z,5.87
2023-01-11T11:39:37.036Z,5.83
2023-01-11T11:44:41.677Z,5.50
2023-01-11T11:49:45.100Z,6.40
2023-01-11T11:54:52.915Z,7.73
2023-01-11T12:00:03.878Z,6.63
2023-01-11T12:05:10.906Z,6.67
2023-01-11T12:10:16.819Z,7.80
2023-01-11T12:15:24.642Z,7.43
2023-01-11T12:20:31.669Z,6.97
2023-01-11T12:25:42.607Z,7.53
2023-01-11T12:30:57.081Z,7.65
2023-01-11T12:36:05.912Z,8.07
2023-01-11T12:41:43.950Z,7.75
2023-01-11T12:47:11.224Z,9.30
2023-01-11T12:52:39.341Z,9.00
2023-01-11T12:58:00.098Z,8.73
2023-01-11T13:03:20.525Z,8.57
2023-01-11T13:08:32.529Z,7.60
2023-01-11T13:13:46.226Z,8.07
2023-01-11T13:18:59.190Z,7.20
2023-01-11T13:24:06.685Z,6.82
2023-01-11T13:29:16.789Z,7.83
2023-01-11T13:34:27.690Z,9.10
2023-01-11T13:39:35.768Z,10.85
2023-01-11T13:44:45.723Z,11.05
2023-01-11T13:50:06.215Z,11.02
2023-01-11T13:55:20.771Z,11.87
2023-01-11T14:00:32.765Z,11.05
2023-01-11T14:05:45.807Z,12.07
2023-01-11T14:10:57.301Z,12.23
2023-01-11T14:16:09.035Z,11.77
2023-01-11T14:21:23.248Z,11.77
2023-01-11T14:26:58.723Z,13.32
2023-01-11T14:32:15.360Z,14.93
2023-01-11T14:37:42.271Z,14.20
2023-01-11T14:43:26.079Z,15.82
2023-01-11T14:48:36.080Z,13.10
2023-01-11T14:53:44.655Z,15.38
2023-01-11T14:59:04.115Z,13.15
2023-01-11T15:04:22.395Z,12.60
2023-01-11T15:09:47.189Z,13.57
2023-01-11T15:14:54.432Z,13.57
2023-01-11T15:20:08.245Z,14.80
2023-01-11T15:25:23.930Z,15.48
2023-01-11T15:30:39.222Z,17.00
2023-01-11T15:35:42.512Z,15.40
2023-01-11T15:40:47.594Z,13.00
2023-01-11T15:46:46.849Z,17.17
2023-01-11T15:52:12.064Z,17.20
2023-01-11T15:57:44.858Z,22.65
2023-01-11T16:03:25.535Z,17.02
2023-01-11T16:08:32.368Z,17.80
2023-01-11T16:13:54.211Z,17.27
2023-01-11T16:18:59.983Z,17.05
2023-01-11T16:24:06.059Z,14.20
2023-01-11T16:29:22.132Z,18.23
2023-01-11T16:34:25.685Z,16.35
2023-01-11T16:39:34.230Z,12.63
2023-01-11T16:44:45.684Z,14.88
2023-01-11T16:49:52.351Z,12.50
2023-01-11T16:54:56.807Z,13.43
2023-01-11T17:00:04.984Z,15.95
2023-01-11T17:05:19.735Z,15.18
2023-01-11T17:10:25.125Z,16.40
2023-01-11T17:15:34.268Z,20.60
2023-01-11T17:20:37.543Z,22.02
2023-01-11T17:25:44.911Z,37.90
2023-01-11T17:30:52.634Z,24.77
2023-01-11T17:35:56.387Z,18.40
2023-01-11T17:41:01.353Z,17.27
2023-01-11T17:46:06.568Z,13.47
2023-01-11T17:51:09.872Z,15.40
2023-01-11T17:56:39.465Z,12.83
2023-01-11T18:01:48.202Z,14.25
2023-01-11T18:06:54.158Z,14.70
2023-01-11T18:12:08.059Z,15.00
2023-01-11T18:17:36.192Z,15.60
2023-01-11T18:22:41.975Z,23.42
2023-01-11T18:27:47.420Z,17.23
2023-01-11T18:32:50.666Z,9.63
2023-01-11T18:37:53.920Z,6.20
2023-01-11T18:42:58.500Z,4.35
2023-01-11T18:48:01.712Z,5.57
2023-01-11T18:53:04.893Z,4.90
2023-01-11T18:58:10.219Z,3.78
2023-01-11T19:08:22.103Z,8.15
2023-01-11T19:13:26.726Z,7.78
2023-01-11T19:18:30.302Z,6.23
2023-01-11T19:23:35.312Z,8.00
2023-01-11T19:28:39.935Z,8.63
2023-01-11T19:33:43.286Z,6.18
2023-01-11T19:38:46.562Z,8.20
2023-01-11T19:43:51.191Z,6.97
2023-01-11T19:48:54.709Z,6.60
2023-01-11T19:54:01.035Z,8.40
2023-01-11T19:59:05.763Z,6.47
2023-01-11T20:04:10.927Z,7.40
2023-01-11T20:09:14.226Z,6.32
2023-01-11T20:14:18.941Z,6.07
2023-01-11T20:19:22.227Z,6.63
2023-01-11T20:24:29.585Z,5.67
2023-01-11T20:29:34.471Z,6.18
2023-01-11T20:34:37.740Z,6.73
2023-01-11T20:39:40.992Z,5.13
2023-01-11T20:44:45.583Z,5.20
2023-01-11T20:49:48.797Z,7.55
2023-01-11T20:54:52.040Z,9.52
2023-01-11T20:59:56.803Z,6.25
2023-01-11T21:05:00.207Z,7.97
2023-01-11T21:10:03.792Z,12.82
2023-01-11T21:15:10.894Z,6.53
2023-01-11T21:20:14.571Z,6.72
2023-01-11T21:25:18.298Z,6.27
2023-01-11T21:30:23.458Z,6.22
2023-01-11T21:35:27.183Z,5.13
2023-01-11T21:40:31.997Z,6.72
2023-01-11T21:45:36.650Z,4.07
2023-01-11T21:50:39.944Z,6.88
2023-01-11T21:55:43.324Z,6.10
2023-01-11T22:00:48.260Z,5.97
2023-01-11T22:05:52.458Z,9.27
2023-01-11T22:10:59.856Z,4.88
2023-01-11T22:16:05.932Z,5.65
2023-01-11T22:21:11.660Z,7.20
2023-01-11T22:26:16.619Z,6.53
2023-01-11T22:31:21.622Z,4.40
2023-01-11T22:36:26.038Z,6.53
2023-01-11T22:41:29.394Z,3.20
2023-01-11T22:46:34.092Z,4.45
2023-01-11T22:51:37.574Z,5.47
2023-01-11T22:56:41.449Z,5.65
2023-01-11T23:01:46.047Z,3.63
2023-01-11T23:06:49.318Z,5.20
2023-01-11T23:12:10.362Z,4.03
2023-01-11T23:17:15.597Z,7.00
2023-01-11T23:22:18.873Z,6.18
2023-01-11T23:27:22.106Z,7.50
2023-01-11T23:32:27.653Z,6.28
2023-01-11T23:37:31.003Z,7.23
2023-01-11T23:42:35.698Z,3.13
2023-01-11T23:47:40.275Z,4.20
2023-01-11T23:52:43.607Z,5.72
2023-01-11T23:58:06.833Z,5.28
